Time,TemperatureF,DewpointF,PressureIn,WindDirection,WindDirectionDegrees,WindSpeedMPH,WindSpeedGustMPH,Humidity,HourlyPrecipIn,Conditions,Clouds,dailyrainin,SoftwareType,DateUTC
2013-07-22 00:02:00,74.0,67.0,29.67,SE,135,0.0,2.0,78,0.00,,,1.20,,2013-07-22 05:02:00,
2013-07-22 00:11:00,74.0,67.0,29.67,SE,135,1.0,4.0,78,0.00,,,0.37,,2013-07-22 05:11:00,
2013-07-22 00:22:00,74.0,66.0,29.67,SE,134,2.0,4.0,77,0.00,,,0.37,,2013-07-22 05:22:00,
2013-07-22 00:32:00,74.0,66.0,29.67,SE,134,2.0,4.0,77,0.00,,,0.37,,2013-07-22 05:32:00,
2013-07-22 00:42:00,74.0,66.0,29.67,SE,134,1.0,4.0,77,0.00,,,0.37,,2013-07-22 05:42:00,
2013-07-22 00:52:00,74.0,66.0,29.67,SE,134,1.0,3.0,77,0.00,,,0.37,,2013-07-22 05:52:00,
2013-07-22 01:01:00,74.0,66.0,29.67,SE,134,1.0,3.0,77,0.00,,,0.37,,2013-07-22 06:01:00,
2013-07-22 01:11:00,73.0,66.0,29.66,SE,141,1.0,4.0,79,0.00,,,0.13,,2013-07-22 06:11:00,
2013-07-22 01:22:00,73.0,67.0,29.67,SE,141,0.0,3.0,81,0.00,,,0.13,,2013-07-22 06:22:00,
2013-07-22 01:33:00,73.0,67.0,29.67,SE,141,0.0,3.0,81,0.00,,,0.13,,2013-07-22 06:33:00,
2013-07-22 01:43:00,74.0,67.0,29.67,SE,140,0.0,4.0,80,0.00,,,0.13,,2013-07-22 06:43:00,
2013-07-22 01:52:00,73.0,67.0,29.66,SE,132,0.0,2.0,82,0.00,,,0.13,,2013-07-22 06:52:00,
2013-07-22 02:01:00,73.0,67.0,29.66,SE,132,0.0,2.0,82,0.00,,,0.13,,2013-07-22 07:01:00,
2013-07-22 02:11:00,72.0,67.0,29.66,SE,132,1.0,6.0,83,0.00,,,0.01,,2013-07-22 07:11:00,
2013-07-22 02:22:00,72.0,68.0,29.68,NE,34,2.0,5.0,86,0.00,,,0.01,,2013-07-22 07:22:00,
2013-07-22 02:33:00,72.0,68.0,29.68,NE,34,2.0,5.0,86,0.00,,,0.01,,2013-07-22 07:33:00,
2013-07-22 02:43:00,71.0,67.0,29.68,ESE,114,0.0,2.0,87,0.00,,,0.01,,2013-07-22 07:43:00,
2013-07-22 02:52:00,71.0,67.0,29.67,ESE,115,0.0,1.0,87,0.00,,,0.01,,2013-07-22 07:52:00,
2013-07-22 03:01:00,71.0,67.0,29.67,ESE,115,0.0,1.0,87,0.00,,,0.01,,2013-07-22 08:01:00,
2013-07-22 03:11:00,71.0,67.0,29.69,ESE,115,0.0,3.0,88,0.00,,,0.01,,2013-07-22 08:11:00,
2013-07-22 03:22:00,71.0,68.0,29.70,ESE,115,0.0,1.0,89,0.00,,,0.01,,2013-07-22 08:22:00,
2013-07-22 03:32:00,71.0,68.0,29.70,ESE,115,0.0,1.0,89,0.00,,,0.01,,2013-07-22 08:32:00,
2013-07-22 03:43:00,70.0,67.0,29.75,WNW,303,9.0,18.0,90,0.00,,,0.01,,2013-07-22 08:43:00,
2013-07-22 03:52:00,71.0,64.0,29.75,WSW,252,10.0,20.0,79,0.08,,,0.09,,2013-07-22 08:52:00,
2013-07-22 04:02:00,71.0,64.0,29.75,WSW,252,10.0,20.0,79,0.08,,,0.09,,2013-07-22 09:02:00,
2013-07-22 04:11:00,65.0,61.0,29.74,WSW,246,5.0,9.0,86,0.28,,,0.30,,2013-07-22 09:11:00,
2013-07-22 04:22:00,65.0,61.0,29.72,SSW,201,5.0,12.0,87,0.32,,,0.33,,2013-07-22 09:22:00,
2013-07-22 04:33:00,65.0,61.0,29.72,SSW,201,5.0,12.0,87,0.32,,,0.33,,2013-07-22 09:33:00,
2013-07-22 04:42:00,66.0,61.0,29.66,South,181,5.0,14.0,85,0.33,,,0.34,,2013-07-22 09:42:00,
2013-07-22 05:02:00,69.0,60.0,29.60,SE,141,3.0,17.0,74,0.24,,,0.35,,2013-07-22 10:02:00,
2013-07-22 05:11:00,73.0,58.0,29.57,South,172,1.0,13.0,60,0.05,,,0.35,,2013-07-22 10:11:00,
2013-07-22 05:32:00,74.0,58.0,29.59,ESE,109,3.0,10.0,57,0.02,,,0.35,,2013-07-22 10:32:00,
2013-07-22 05:43:00,73.0,60.0,29.59,South,186,0.0,3.0,63,0.00,,,0.35,,2013-07-22 10:43:00,
2013-07-22 06:01:00,70.0,61.0,29.60,SW,225,1.0,3.0,72,0.00,,,0.35,,2013-07-22 11:01:00,
2013-07-22 06:11:00,69.0,60.0,29.63,West,261,5.0,9.0,73,0.00,,,0.35,,2013-07-22 11:11:00,
2013-07-22 06:32:00,69.0,58.0,29.61,SSW,194,2.0,8.0,69,0.00,,,0.35,,2013-07-22 11:32:00,
2013-07-22 06:43:00,69.0,58.0,29.63,WSW,239,0.0,5.0,69,0.00,,,0.35,,2013-07-22 11:43:00,
2013-07-22 07:02:00,68.0,59.0,29.64,NW,324,1.0,4.0,72,0.00,,,0.35,,2013-07-22 12:02:00,
2013-07-22 07:11:00,68.0,59.0,29.64,NW,304,0.0,4.0,73,0.00,,,0.35,,2013-07-22 12:11:00,
2013-07-22 07:32:00,68.0,60.0,29.64,NW,306,0.0,1.0,75,0.00,,,0.35,,2013-07-22 12:32:00,
2013-07-22 07:43:00,69.0,60.0,29.64,NW,306,0.0,3.0,74,0.00,,,0.35,,2013-07-22 12:43:00,
2013-07-22 07:53:00,69.0,60.0,29.64,NW,306,0.0,3.0,74,0.00,,,0.35,,2013-07-22 12:53:00,
2013-07-22 08:01:00,69.0,61.0,29.64,North,5,0.0,3.0,75,0.00,,,0.35,,2013-07-22 13:01:00,
2013-07-22 08:11:00,69.0,61.0,29.64,North,5,0.0,1.0,76,0.00,,,0.35,,2013-07-22 13:11:00,
2013-07-22 08:32:00,71.0,62.0,29.64,North,5,0.0,1.0,74,0.00,,,0.35,,2013-07-22 13:32:00,
2013-07-22 08:43:00,72.0,62.0,29.64,North,5,0.0,1.0,70,0.00,,,0.35,,2013-07-22 13:43:00,
2013-07-22 09:01:00,72.0,62.0,29.65,North,5,1.0,4.0,72,0.00,,,0.35,,2013-07-22 14:01:00,
2013-07-22 09:11:00,72.0,63.0,29.66,North,9,0.0,2.0,74,0.00,,,0.34,,2013-07-22 14:11:00,
2013-07-22 09:32:00,74.0,63.0,29.65,NE,34,0.0,3.0,69,0.00,,,0.34,,2013-07-22 14:32:00,
2013-07-22 09:43:00,76.0,64.0,29.65,NE,37,0.0,3.0,66,0.00,,,0.34,,2013-07-22 14:43:00,
2013-07-22 09:53:00,76.0,64.0,29.65,NE,37,0.0,3.0,66,0.00,,,0.34,,2013-07-22 14:53:00,
2013-07-22 10:33:00,80.0,61.0,29.65,SSE,154,2.0,6.0,53,0.00,,,0.34,,2013-07-22 15:33:00,
2013-07-22 10:42:00,81.0,62.0,29.67,NE,44,0.0,4.0,53,0.00,,,0.34,,2013-07-22 15:42:00,
2013-07-22 10:52:00,81.0,62.0,29.67,NE,44,0.0,4.0,53,0.00,,,0.34,,2013-07-22 15:52:00,
2013-07-22 11:01:00,80.0,64.0,29.68,NNE,15,3.0,5.0,58,0.00,,,0.34,,2013-07-22 16:01:00,
2013-07-22 11:11:00,80.0,63.0,29.67,ENE,59,3.0,7.0,56,0.00,,,0.34,,2013-07-22 16:11:00,
2013-07-22 11:21:00,80.0,63.0,29.67,ENE,59,3.0,7.0,56,0.00,,,0.34,,2013-07-22 16:21:00,
2013-07-22 11:32:00,81.0,61.0,29.67,SE,136,0.0,6.0,51,0.00,,,0.34,,2013-07-22 16:32:00,
2013-07-22 11:43:00,83.0,64.0,29.66,NNE,32,4.0,8.0,53,0.00,,,0.34,,2013-07-22 16:43:00,
2013-07-22 11:52:00,83.0,64.0,29.66,NNE,32,4.0,8.0,53,0.00,,,0.34,,2013-07-22 16:52:00,
2013-07-22 12:01:00,84.0,66.0,29.67,NE,53,6.0,11.0,54,0.00,,,0.34,,2013-07-22 17:01:00,
2013-07-22 12:11:00,85.0,65.0,29.67,NE,37,5.0,9.0,51,0.00,,,0.34,,2013-07-22 17:11:00,
2013-07-22 12:23:00,85.0,65.0,29.67,NE,37,5.0,9.0,51,0.00,,,0.34,,2013-07-22 17:23:00,
2013-07-22 12:32:00,86.0,63.0,29.68,NE,39,4.0,11.0,47,0.00,,,0.34,,2013-07-22 17:32:00,
2013-07-22 12:43:00,86.0,65.0,29.68,NE,48,4.0,10.0,50,0.00,,,0.34,,2013-07-22 17:43:00,
2013-07-22 12:52:00,86.0,65.0,29.68,NE,48,4.0,10.0,50,0.00,,,0.34,,2013-07-22 17:52:00,
2013-07-22 13:04:00,86.0,63.0,29.67,NNE,31,4.0,8.0,46,0.00,,,0.34,,2013-07-22 18:04:00,
2013-07-22 13:13:00,87.0,64.0,29.67,NNE,21,6.0,12.0,47,0.00,,,0.34,,2013-07-22 18:13:00,
2013-07-22 13:23:00,87.0,64.0,29.67,NNE,21,6.0,12.0,47,0.00,,,0.34,,2013-07-22 18:23:00,
2013-07-22 13:35:00,87.0,64.0,29.67,North,360,5.0,10.0,47,0.00,,,0.34,,2013-07-22 18:35:00,
2013-07-22 13:48:00,88.0,64.0,29.67,NNE,24,3.0,10.0,45,0.00,,,0.34,,2013-07-22 18:48:00,
2013-07-22 13:54:00,88.0,64.0,29.67,NNE,24,3.0,10.0,45,0.00,,,0.34,,2013-07-22 18:54:00,
2013-07-22 14:04:00,88.0,63.0,29.67,North,360,5.0,9.0,43,0.00,,,0.34,,2013-07-22 19:04:00,
2013-07-22 14:14:00,89.0,63.0,29.67,North,10,5.0,9.0,42,0.00,,,0.34,,2013-07-22 19:14:00,
2013-07-22 14:22:00,89.0,63.0,29.67,North,10,5.0,9.0,42,0.00,,,0.34,,2013-07-22 19:22:00,
2013-07-22 14:34:00,90.0,65.0,29.66,NNE,12,4.0,10.0,44,0.00,,,0.34,,2013-07-22 19:34:00,
2013-07-22 14:44:00,91.0,66.0,29.66,ENE,61,4.0,10.0,44,0.00,,,0.34,,2013-07-22 19:44:00,
2013-07-22 14:54:00,91.0,66.0,29.66,ENE,61,4.0,10.0,44,0.00,,,0.34,,2013-07-22 19:54:00,
2013-07-22 15:03:00,91.0,65.0,29.66,NNE,15,5.0,10.0,43,0.00,,,0.34,,2013-07-22 20:03:00,
2013-07-22 15:22:00,91.0,67.0,29.66,North,355,3.0,9.0,46,0.00,,,0.34,,2013-07-22 20:22:00,
2013-07-22 15:32:00,91.0,65.0,29.66,North,360,4.0,9.0,43,0.00,,,0.34,,2013-07-22 20:32:00,
2013-07-22 15:43:00,91.0,67.0,29.65,ENE,60,4.0,9.0,46,0.00,,,0.34,,2013-07-22 20:43:00,
2013-07-22 15:52:00,91.0,67.0,29.65,ENE,60,4.0,9.0,46,0.00,,,0.34,,2013-07-22 20:52:00,
2013-07-22 16:01:00,91.0,68.0,29.66,North,355,6.0,10.0,47,0.00,,,0.34,,2013-07-22 21:01:00,
2013-07-22 16:11:00,91.0,65.0,29.66,NE,34,5.0,9.0,43,0.00,,,0.34,,2013-07-22 21:11:00,
2013-07-22 16:22:00,91.0,65.0,29.66,NE,34,5.0,9.0,43,0.00,,,0.34,,2013-07-22 21:22:00,
2013-07-22 16:32:00,92.0,68.0,29.66,NNE,29,3.0,9.0,45,0.00,,,0.34,,2013-07-22 21:32:00,
2013-07-22 16:43:00,92.0,67.0,29.66,NNE,15,3.0,7.0,44,0.00,,,0.34,,2013-07-22 21:43:00,
2013-07-22 16:52:00,92.0,67.0,29.66,NNE,15,3.0,7.0,44,0.00,,,0.34,,2013-07-22 21:52:00,
2013-07-22 17:01:00,92.0,68.0,29.66,ENE,68,3.0,8.0,46,0.00,,,0.34,,2013-07-22 22:01:00,
2013-07-22 17:11:00,92.0,68.0,29.66,NE,55,5.0,9.0,46,0.00,,,0.34,,2013-07-22 22:11:00,
2013-07-22 17:22:00,92.0,68.0,29.66,NE,55,5.0,9.0,46,0.00,,,0.34,,2013-07-22 22:22:00,
2013-07-22 17:32:00,92.0,68.0,29.66,ENE,68,4.0,7.0,45,0.00,,,0.34,,2013-07-22 22:32:00,
2013-07-22 17:43:00,92.0,68.0,29.66,ESE,123,2.0,6.0,46,0.00,,,0.34,,2013-07-22 22:43:00,
2013-07-22 17:52:00,92.0,68.0,29.66,ESE,123,2.0,6.0,46,0.00,,,0.34,,2013-07-22 22:52:00,
2013-07-22 18:01:00,93.0,68.0,29.66,SE,130,2.0,7.0,44,0.00,,,0.34,,2013-07-22 23:01:00,
2013-07-22 18:11:00,91.0,67.0,29.66,NE,53,4.0,9.0,46,0.00,,,0.34,,2013-07-22 23:11:00,
2013-07-22 18:22:00,91.0,67.0,29.66,NE,53,4.0,9.0,46,0.00,,,0.34,,2013-07-22 23:22:00,
2013-07-22 18:32:00,91.0,67.0,29.66,North,5,3.0,7.0,46,0.00,,,0.34,,2013-07-22 23:32:00,
2013-07-22 18:42:00,91.0,68.0,29.66,ENE,62,2.0,5.0,47,0.00,,,0.34,,2013-07-22 23:42:00,
2013-07-22 18:52:00,91.0,68.0,29.66,ENE,62,2.0,5.0,47,0.00,,,0.34,,2013-07-22 23:52:00,
2013-07-22 19:01:00,92.0,68.0,29.65,ENE,76,2.0,5.0,45,0.00,,,0.34,,2013-07-23 00:01:00,
2013-07-22 19:12:00,91.0,67.0,29.65,ENE,61,2.0,6.0,46,0.00,,,0.34,,2013-07-23 00:12:00,
2013-07-22 19:22:00,91.0,67.0,29.65,ENE,61,2.0,6.0,46,0.00,,,0.34,,2013-07-23 00:22:00,
2013-07-22 19:32:00,90.0,68.0,29.65,NE,42,2.0,8.0,48,0.00,,,0.34,,2013-07-23 00:32:00,
2013-07-22 19:43:00,90.0,69.0,29.65,NE,53,3.0,6.0,51,0.00,,,0.34,,2013-07-23 00:43:00,
2013-07-22 19:52:00,90.0,69.0,29.65,NE,53,3.0,6.0,51,0.00,,,0.34,,2013-07-23 00:52:00,
2013-07-22 20:01:00,88.0,68.0,29.65,ENE,78,1.0,5.0,52,0.00,,,0.34,,2013-07-23 01:01:00,
2013-07-22 20:11:00,88.0,69.0,29.65,ENE,77,2.0,6.0,53,0.00,,,0.34,,2013-07-23 01:11:00,
2013-07-22 20:22:00,88.0,69.0,29.65,ENE,77,2.0,6.0,53,0.00,,,0.34,,2013-07-23 01:22:00,
2013-07-22 20:32:00,86.0,67.0,29.65,NE,37,1.0,6.0,53,0.00,,,0.34,,2013-07-23 01:32:00,
2013-07-22 20:43:00,85.0,66.0,29.65,NE,50,1.0,7.0,53,0.00,,,0.34,,2013-07-23 01:43:00,
2013-07-22 20:53:00,85.0,66.0,29.65,NE,50,1.0,7.0,53,0.00,,,0.34,,2013-07-23 01:53:00,
2013-07-22 21:01:00,83.0,65.0,29.65,East,94,1.0,5.0,54,0.00,,,0.34,,2013-07-23 02:01:00,
2013-07-22 21:11:00,83.0,65.0,29.66,East,101,1.0,3.0,55,0.00,,,0.34,,2013-07-23 02:11:00,
2013-07-22 21:22:00,83.0,65.0,29.66,East,101,1.0,3.0,55,0.00,,,0.34,,2013-07-23 02:22:00,
2013-07-22 21:33:00,82.0,64.0,29.66,ESE,111,1.0,6.0,55,0.00,,,0.34,,2013-07-23 02:33:00,
2013-07-22 21:43:00,81.0,63.0,29.67,NE,45,1.0,4.0,55,0.00,,,0.34,,2013-07-23 02:43:00,
2013-07-22 21:52:00,81.0,63.0,29.67,NE,45,1.0,4.0,55,0.00,,,0.34,,2013-07-23 02:52:00,
2013-07-22 22:01:00,80.0,63.0,29.67,NE,52,1.0,6.0,57,0.00,,,0.34,,2013-07-23 03:01:00,
2013-07-22 22:11:00,79.0,63.0,29.68,NE,44,1.0,6.0,58,0.00,,,0.34,,2013-07-23 03:11:00,
2013-07-22 22:22:00,79.0,63.0,29.68,NE,44,1.0,6.0,58,0.00,,,0.34,,2013-07-23 03:22:00,
2013-07-22 22:33:00,78.0,63.0,29.68,SE,146,0.0,6.0,60,0.00,,,0.34,,2013-07-23 03:33:00,
2013-07-22 22:43:00,77.0,64.0,29.68,SE,142,1.0,7.0,64,0.00,,,0.34,,2013-07-23 03:43:00,
2013-07-22 22:52:00,77.0,64.0,29.68,SE,142,1.0,7.0,64,0.00,,,0.34,,2013-07-23 03:52:00,
2013-07-22 23:01:00,76.0,62.0,29.69,SE,144,1.0,5.0,63,0.00,,,0.34,,2013-07-23 04:01:00,
2013-07-22 23:11:00,76.0,63.0,29.69,SE,124,1.0,3.0,64,0.00,,,0.34,,2013-07-23 04:11:00,
2013-07-22 23:21:00,76.0,63.0,29.69,SE,124,1.0,3.0,64,0.00,,,0.34,,2013-07-23 04:21:00,
2013-07-22 23:32:00,75.0,62.0,29.69,SE,144,1.0,5.0,65,0.00,,,0.34,,2013-07-23 04:32:00,
2013-07-22 23:42:00,74.0,62.0,29.69,SE,146,1.0,5.0,67,0.00,,,0.34,,2013-07-23 04:42:00,
2013-07-22 23:53:00,74.0,62.0,29.69,SE,146,1.0,5.0,67,0.00,,,0.34,,2013-07-23 04:53:00,